Kezdőlap
METAR-TAF:

METAR-TAF

Repülőterek :

Auckland, Új-Zéland

földrajzi szélesség: 37-01S, földrajzi hosszúság: 174-48E, magasság: 7 m

Jelenlegi meteorológiai megfigyelések

A jelentés 16 perccel ezelõtt készült, 06:00 UTC
Délnyugati szél 14 kt
Hőmérséklet 20°C
Páratartalom 56%
Légköri nyomás 1013 hPa
Látótávolság 10 km, vagy több

METAR: NZAA 100600Z AUTO 22014KT 9999 NCD 20/11 Q1013 NOSIG

Idő: 19:16 (06:16 UTC)

Előrejelzés

A jelentés 1 órával és 14 perccel ezelõtt készült, 05:02 UTC
Az előrejelzés 10-én 06 óra UTC és 11-én 06 óra UTC között érvényes
Délnyugati szél 15 kt
Látótávolság 10 km, vagy több
Kevés felhő 4000 lábon
10-én 09 óra UTC és 10-én 11 óra UTC között fokozatosan kialakuló
Dél-délkeleti szél 5 kt
10-én 21 óra UTC és 10-én 23 óra UTC között fokozatosan kialakuló
Délnyugati szél 15 kt

TAF: NZAA 100502Z 1006/1106 22015KT 9999 FEW040 BECMG 1009/1011 16005KT BECMG 1021/1023 22015KT

Meteorológiai megfigyelések és előrejelzések több, mint 4000 repülőtéren (METAR és TAF jelentéseket).

A térképen piros és sárga pontok jelzik az elérhető meteorológiai állomásokat.

Mozgassa az egeret a pont fölött, hogy megjelenjen az állomás neve.

Azután kattintson az időjárási megfigyelések és előrejelzések megtekintéséhez.

A térkép megváltoztatása: kattintson a fekete keresztel jelölt zöld gombra ráközelítéshez, a vonallal jelölt zöld gombra távolításhoz, vagy a zöld nyilakra a szomszédos térképek eléréséhez.


METAR-TAF: